Time;durP1;ratioP1;P1;durP2;ratioP2;P2;SDS_P1;SDS_P2;PMS_P1;PMS_P2;Temp;Humidity;BMP_temperature;BMP_pressure;BME280_temperature;BME280_humidity;BME280_pressure;Samples;Min_cycle;Max_cycle;Signal;HPM_P1;HPM_P2
2022/08/22 00:02:00;;;;;;;0.80;0.10;;;;;;;16.06;86.97;98049.75;5005061;28;20705;-75
2022/08/22 00:04:31;;;;;;;0.93;0.10;;;;;;;16.05;86.82;98037.06;5007339;28;20487;-74
2022/08/22 00:07:07;;;;;;;0.25;0.10;;;;;;;16.04;86.87;98040.16;5003673;28;20135;-75
2022/08/22 00:09:42;;;;;;;0.57;0.10;;;;;;;16.04;86.68;98041.00;5007832;28;20026;-74
2022/08/22 00:12:19;;;;;;;0.00;0.00;;;;;;;16.05;87.09;98039.84;5006585;28;20065;-74
2022/08/22 00:14:57;;;;;;;0.20;0.10;;;;;;;16.05;86.94;98037.06;5007309;28;20029;-75
2022/08/22 00:17:53;;;;;;;1.42;0.22;;;;;;;16.06;86.92;98043.41;5005147;28;20026;-75
2022/08/22 00:20:31;;;;;;;0.17;0.13;;;;;;;16.07;86.72;98043.06;5003901;28;20404;-75
2022/08/22 00:23:10;;;;;;;0.10;0.10;;;;;;;16.09;86.77;98044.69;5005584;28;20049;-75
2022/08/22 00:25:45;;;;;;;1.25;0.50;;;;;;;16.10;86.96;98054.59;5002821;28;20033;-75
2022/08/22 00:28:20;;;;;;;0.50;0.20;;;;;;;16.09;86.85;98055.75;5002644;28;20062;-74
2022/08/22 00:31:00;;;;;;;0.10;0.10;;;;;;;16.10;86.93;98052.63;5002914;28;20412;-74
2022/08/22 00:33:34;;;;;;;0.20;0.10;;;;;;;16.13;86.65;98057.47;5003136;28;20037;-74
2022/08/22 00:36:13;;;;;;;0.10;0.10;;;;;;;16.11;86.55;98050.66;5008990;28;20064;-75
2022/08/22 00:38:51;;;;;;;0.13;0.10;;;;;;;16.09;86.38;98042.72;5009446;28;20081;-74
2022/08/22 00:41:33;;;;;;;0.20;0.10;;;;;;;16.09;86.37;98031.66;5009967;28;20395;-74
2022/08/22 00:44:07;;;;;;;0.20;0.20;;;;;;;16.10;86.55;98043.53;5000447;28;20026;-73
2022/08/22 00:46:42;;;;;;;0.77;0.20;;;;;;;16.07;86.50;98045.84;5007309;28;20057;-74
2022/08/22 00:49:21;;;;;;;0.22;0.20;;;;;;;16.08;86.46;98049.41;5008882;28;20048;-74
2022/08/22 00:51:59;;;;;;;0.20;0.20;;;;;;;16.09;86.52;98047.47;5010881;28;20045;-73
2022/08/22 00:54:43;;;;;;;0.40;0.30;;;;;;;16.09;86.16;98044.69;5010398;28;20041;-73
2022/08/22 00:57:34;;;;;;;0.50;0.30;;;;;;;16.07;86.40;98037.53;5008736;28;20038;-74
2022/08/22 01:00:19;;;;;;;0.68;0.20;;;;;;;16.07;86.51;98040.31;5007751;28;20519;-74
2022/08/22 01:03:06;;;;;;;0.20;0.20;;;;;;;16.07;86.41;98036.72;5005590;28;20420;-73
2022/08/22 01:05:34;;;;;;;0.40;0.20;;;;;;;16.07;86.22;98039.50;5009762;28;20044;-74
2022/08/22 01:08:14;;;;;;;0.32;0.30;;;;;;;16.06;86.25;98038.69;5010648;28;20085;-74
2022/08/22 01:10:54;;;;;;;0.50;0.20;;;;;;;16.08;86.58;98043.88;5011035;28;20030;-74
2022/08/22 01:13:49;;;;;;;0.28;0.13;;;;;;;16.07;86.30;98050.56;5010846;28;20109;-74
2022/08/22 01:16:17;;;;;;;0.32;0.20;;;;;;;16.06;86.11;98049.75;5008523;28;20404;-73
2022/08/22 01:19:30;;;;;;;0.25;0.10;;;;;;;16.04;86.23;98045.69;5010469;28;20018;-73
2022/08/22 01:22:27;;;;;;;0.90;0.20;;;;;;;16.05;86.07;98041.78;4956357;28;20130;-74
2022/08/22 01:25:20;;;;;;;0.30;0.10;;;;;;;16.00;86.21;98042.81;5010211;28;20021;-73
2022/08/22 01:28:47;;;;;;;0.10;0.10;;;;;;;16.01;86.03;98044.44;5008867;28;20113;-74
2022/08/22 01:31:41;;;;;;;0.20;0.20;;;;;;;16.02;86.21;98048.81;4934194;28;20038;-73
2022/08/22 01:34:25;;;;;;;0.60;0.10;;;;;;;16.00;86.00;98053.06;5000399;28;20022;-73
2022/08/22 01:36:53;;;;;;;0.20;0.10;;;;;;;15.99;86.32;98048.69;5000105;28;20022;-74
2022/08/22 01:39:24;;;;;;;0.13;0.10;;;;;;;15.99;86.39;98052.28;5000406;28;20029;-73
2022/08/22 01:42:19;;;;;;;1.55;0.10;;;;;;;15.98;85.94;98050.66;5007228;28;20130;-74
2022/08/22 01:45:03;;;;;;;0.52;0.10;;;;;;;15.97;86.46;98049.03;4996449;28;20077;-73
2022/08/22 01:47:38;;;;;;;0.75;0.17;;;;;;;15.98;86.35;98056.19;5005864;28;20038;-73
2022/08/22 01:50:31;;;;;;;0.43;0.30;;;;;;;15.99;86.53;98054.22;5008692;28;20025;-73
2022/08/22 01:53:07;;;;;;;0.73;0.30;;;;;;;15.98;86.32;98047.91;5003218;28;20038;-72
2022/08/22 01:55:38;;;;;;;2.20;0.20;;;;;;;15.97;86.15;98037.97;5004066;28;20022;-73
2022/08/22 01:58:29;;;;;;;0.77;0.10;;;;;;;15.96;86.25;98030.00;5004905;28;20387;-74
2022/08/22 02:01:09;;;;;;;0.70;0.10;;;;;;;15.93;86.43;98037.84;4995397;28;20041;-73
2022/08/22 02:04:05;;;;;;;0.35;0.10;;;;;;;15.92;86.17;98032.66;5003845;28;20053;-74
2022/08/22 02:06:51;;;;;;;0.15;0.10;;;;;;;15.92;86.19;98032.66;5006865;28;20041;-72
2022/08/22 02:09:32;;;;;;;0.30;0.10;;;;;;;15.91;86.24;98031.84;5001053;28;20113;-73
2022/08/22 02:12:17;;;;;;;0.30;0.20;;;;;;;15.90;86.47;98032.19;5000380;28;20038;-73
2022/08/22 02:14:57;;;;;;;0.10;0.10;;;;;;;15.88;86.09;98027.03;5008566;28;20058;-75
2022/08/22 02:17:32;;;;;;;0.30;0.20;;;;;;;15.87;86.40;98036.47;5005941;28;20037;-72
2022/08/22 02:20:30;;;;;;;0.10;0.10;;;;;;;15.88;86.12;98037.25;5006182;28;20037;-72
2022/08/22 02:23:05;;;;;;;0.38;0.28;;;;;;;15.91;86.23;98042.91;4992475;28;20053;-72
2022/08/22 02:25:45;;;;;;;1.42;0.30;;;;;;;15.90;86.33;98043.25;5006812;28;20036;-74
2022/08/22 02:29:03;;;;;;;0.65;0.30;;;;;;;15.90;86.33;98043.25;5006013;28;20096;-73
2022/08/22 02:31:46;;;;;;;0.28;0.20;;;;;;;15.90;86.22;98046.03;4962432;28;20057;-73
2022/08/22 02:34:33;;;;;;;0.28;0.20;;;;;;;15.93;86.24;98043.38;4999264;28;20032;-74
2022/08/22 02:37:09;;;;;;;0.20;0.10;;;;;;;15.92;86.08;98040.97;5007919;28;20125;-72
2022/08/22 02:39:43;;;;;;;0.50;0.25;;;;;;;15.93;86.33;98037.03;5008220;28;20064;-74
2022/08/22 02:42:24;;;;;;;0.95;0.80;;;;;;;15.92;85.92;98035.44;5012295;28;20558;-74
2022/08/22 02:45:16;;;;;;;0.65;0.40;;;;;;;15.91;86.12;98036.56;5011999;28;20022;-74
2022/08/22 02:48:09;;;;;;;0.20;0.20;;;;;;;15.92;86.37;98035.44;4975180;28;20042;-76
2022/08/22 02:50:57;;;;;;;0.80;0.20;;;;;;;15.91;86.20;98040.13;5011907;28;20041;-73
2022/08/22 02:53:39;;;;;;;0.88;0.20;;;;;;;15.92;86.64;98035.44;5012867;28;20072;-74
2022/08/22 02:56:12;;;;;;;0.82;0.28;;;;;;;15.91;86.08;98034.59;5009231;28;20415;-74
2022/08/22 02:58:54;;;;;;;0.20;0.20;;;;;;;15.93;86.25;98043.38;5008904;28;20037;-73
2022/08/22 03:01:32;;;;;;;0.60;0.20;;;;;;;15.94;86.41;98033.13;5013170;28;20029;-73
2022/08/22 03:04:31;;;;;;;1.17;0.30;;;;;;;15.94;86.23;98033.13;5011763;28;20053;-74
2022/08/22 03:07:21;;;;;;;0.37;0.30;;;;;;;15.95;86.05;98037.50;5010536;28;20040;-73
2022/08/22 03:09:54;;;;;;;1.58;0.73;;;;;;;15.97;86.47;98035.22;5008638;28;20304;-74
2022/08/22 03:12:49;;;;;;;0.45;0.20;;;;;;;15.98;86.18;98033.25;5009803;28;20041;-74
2022/08/22 03:15:33;;;;;;;0.22;0.20;;;;;;;16.01;86.46;98040.84;5009447;28;20042;-73
2022/08/22 03:18:26;;;;;;;0.30;0.30;;;;;;;16.01;86.85;98044.44;5012795;28;20148;-74
2022/08/22 03:21:12;;;;;;;0.50;0.30;;;;;;;16.04;86.17;98037.41;5010543;28;20026;-73
2022/08/22 03:23:45;;;;;;;1.58;0.40;;;;;;;16.05;86.18;98039.84;5012739;28;20030;-73
2022/08/22 03:26:35;;;;;;;0.93;0.32;;;;;;;16.06;86.41;98040.63;5011105;28;20030;-74
2022/08/22 03:29:11;;;;;;;0.98;0.50;;;;;;;16.05;86.09;98031.53;5009735;28;20052;-73
2022/08/22 03:31:38;;;;;;;0.47;0.40;;;;;;;16.04;86.12;98043.75;5011731;28;20022;-74
2022/08/22 03:34:22;;;;;;;1.48;0.40;;;;;;;16.04;86.58;98045.69;5009991;28;20068;-73
2022/08/22 03:37:18;;;;;;;2.70;0.40;;;;;;;16.06;86.32;98048.94;5006225;28;20385;-74
2022/08/22 03:39:49;;;;;;;1.00;0.70;;;;;;;16.04;86.54;98043.75;5001258;28;20045;-74
2022/08/22 03:42:15;;;;;;;1.10;1.00;;;;;;;16.01;86.52;98041.69;5012316;28;20091;-76
2022/08/22 03:45:17;;;;;;;1.13;1.00;;;;;;;16.00;86.33;98042.00;5010231;28;20463;-73
2022/08/22 03:48:03;;;;;;;1.00;0.90;;;;;;;15.98;86.67;98050.66;5008017;28;20032;-74
2022/08/22 03:50:54;;;;;;;1.08;0.98;;;;;;;15.96;86.55;98041.06;5008977;28;20033;-74
2022/08/22 03:53:38;;;;;;;1.10;0.98;;;;;;;15.96;86.61;98038.31;5007542;28;20168;-73
2022/08/22 03:56:30;;;;;;;1.23;0.90;;;;;;;15.95;86.57;98048.56;5007633;28;20057;-73
2022/08/22 03:59:19;;;;;;;1.40;0.88;;;;;;;15.97;86.60;98034.38;5008268;28;20038;-74
2022/08/22 04:02:06;;;;;;;1.10;0.85;;;;;;;15.98;86.73;98039.59;5010898;28;20109;-74
2022/08/22 04:05:08;;;;;;;1.23;0.90;;;;;;;15.99;87.06;98034.84;5011366;28;20049;-74
2022/08/22 04:07:55;;;;;;;1.42;1.13;;;;;;;16.02;86.98;98040.53;5009422;28;20038;-74
2022/08/22 04:10:43;;;;;;;1.35;1.20;;;;;;;16.04;86.65;98037.41;5009932;28;20081;-74
2022/08/22 04:13:47;;;;;;;1.65;1.20;;;;;;;16.01;86.54;98038.91;5011250;28;20472;-74
2022/08/22 04:16:46;;;;;;;1.88;1.40;;;;;;;16.04;86.71;98045.69;4982117;28;20045;-74
2022/08/22 04:19:30;;;;;;;1.85;1.38;;;;;;;16.03;86.79;98044.91;5002219;28;20113;-74
2022/08/22 04:22:26;;;;;;;1.40;1.30;;;;;;;16.04;86.68;98042.94;5000995;28;20034;-74
2022/08/22 04:25:07;;;;;;;1.88;1.65;;;;;;;16.02;86.66;98046.06;5004945;28;20492;-74
2022/08/22 04:27:42;;;;;;;1.90;1.30;;;;;;;16.03;87.09;98049.63;5005527;28;20026;-74
2022/08/22 04:30:30;;;;;;;1.45;1.27;;;;;;;16.04;86.78;98054.81;5007604;28;20053;-74
2022/08/22 04:33:13;;;;;;;2.10;1.90;;;;;;;16.04;87.11;98049.28;5009691;28;20117;-74
2022/08/22 04:35:58;;;;;;;1.55;1.45;;;;;;;16.05;86.90;98050.91;5007407;28;20038;-74
2022/08/22 04:38:38;;;;;;;2.00;1.80;;;;;;;16.03;87.21;98058.75;5022693;28;20062;-74
2022/08/22 04:41:10;;;;;;;2.78;1.90;;;;;;;16.04;87.36;98060.34;5006195;28;20440;-74
2022/08/22 04:43:51;;;;;;;1.88;1.65;;;;;;;16.02;87.22;98057.13;5008012;28;20025;-74
2022/08/22 04:46:37;;;;;;;1.90;1.80;;;;;;;16.02;86.77;98068.19;5010331;28;20029;-75
2022/08/22 04:49:27;;;;;;;2.25;2.05;;;;;;;16.02;87.37;98068.19;5008586;28;20109;-75
2022/08/22 04:52:03;;;;;;;2.25;2.05;;;;;;;16.02;87.32;98070.94;5008760;28;20146;-75
2022/08/22 04:54:54;;;;;;;2.28;2.00;;;;;;;16.03;86.97;98077.28;5006933;28;20161;-75
2022/08/22 04:57:47;;;;;;;1.90;1.80;;;;;;;16.02;86.96;98082.03;5004567;28;20031;-75
2022/08/22 05:00:14;;;;;;;2.15;1.95;;;;;;;16.02;86.95;98083.97;5007327;28;20065;-75
2022/08/22 05:02:47;;;;;;;2.70;1.90;;;;;;;16.02;87.41;98083.97;5003143;28;20580;-72
2022/08/22 05:05:20;;;;;;;1.88;1.77;;;;;;;16.05;87.17;98080.50;5000690;28;20121;-72
2022/08/22 05:07:52;;;;;;;2.20;2.00;;;;;;;16.07;87.02;98087.34;5010238;28;20056;-73
2022/08/22 05:10:20;;;;;;;2.25;2.00;;;;;;;16.12;87.49;98093.78;5008518;28;20483;-72
2022/08/22 05:12:54;;;;;;;2.10;1.90;;;;;;;16.11;87.14;98094.91;5007417;28;20030;-72
2022/08/22 05:15:29;;;;;;;2.47;2.28;;;;;;;16.10;87.27;98096.91;5006652;28;20053;-74
2022/08/22 05:18:02;;;;;;;2.40;2.20;;;;;;;16.07;87.20;98089.28;5010838;28;20033;-75
2022/08/22 05:20:28;;;;;;;2.78;2.30;;;;;;;16.07;86.95;98095.63;5010976;28;20022;-76
2022/08/22 05:23:04;;;;;;;2.53;2.33;;;;;;;16.09;87.04;98094.47;5008413;28;20403;-76
2022/08/22 05:25:34;;;;;;;2.40;2.20;;;;;;;16.12;87.29;98093.78;4998805;28;20118;-74
2022/08/22 05:28:31;;;;;;;2.60;2.28;;;;;;;16.10;87.08;98098.88;5002301;28;20022;-75
2022/08/22 05:30:57;;;;;;;2.40;2.20;;;;;;;16.12;87.10;98099.31;4996083;28;20038;-75
2022/08/22 05:33:22;;;;;;;2.47;2.28;;;;;;;16.11;87.39;98098.50;5004042;28;20034;-75
2022/08/22 05:35:57;;;;;;;2.88;2.47;;;;;;;16.11;87.36;98103.22;5005812;28;20659;-75
2022/08/22 05:38:30;;;;;;;5.10;2.80;;;;;;;16.14;87.32;98110.84;5005331;28;20029;-75
2022/08/22 05:41:10;;;;;;;2.60;2.40;;;;;;;16.15;86.91;98113.28;5007140;28;20076;-76
2022/08/22 05:43:39;;;;;;;2.58;2.35;;;;;;;16.14;86.91;98117.19;4994504;28;20399;-75
2022/08/22 05:46:11;;;;;;;2.88;2.45;;;;;;;16.13;86.80;98121.13;5000866;28;20384;-75
2022/08/22 05:48:44;;;;;;;2.40;2.20;;;;;;;16.13;87.07;98115.56;5004811;28;20354;-75
2022/08/22 05:51:20;;;;;;;2.47;2.28;;;;;;;16.11;87.17;98115.09;5005835;28;20649;-76
2022/08/22 05:53:50;;;;;;;3.05;2.75;;;;;;;16.10;87.24;98119.03;5007565;28;20076;-76
2022/08/22 05:56:20;;;;;;;;;;;;;;;16.13;86.79;98134.94;4996196;28;20455;-75
2022/08/22 05:58:55;;;;;;;;;;;;;;;16.13;86.78;98137.72;4996315;28;20457;-75
2022/08/22 06:01:33;;;;;;;3.05;2.75;;;;;;;16.12;87.05;98136.09;4997536;28;19973;-76
2022/08/22 06:04:05;;;;;;;3.10;2.80;;;;;;;16.11;86.99;98130.88;5000671;28;20073;-75
2022/08/22 06:06:49;;;;;;;3.25;2.95;;;;;;;16.09;86.77;98130.44;5005505;28;20531;-75
2022/08/22 06:09:31;;;;;;;4.60;3.10;;;;;;;16.06;87.16;98134.69;5006957;28;20027;-76
2022/08/22 06:12:03;;;;;;;3.22;2.92;;;;;;;16.07;87.05;98130.78;5006369;28;20472;-75
2022/08/22 06:14:51;;;;;;;3.05;2.75;;;;;;;16.05;86.84;98131.13;4998407;28;20026;-75
2022/08/22 06:17:23;;;;;;;2.92;2.63;;;;;;;16.06;86.90;98134.69;4992665;28;20045;-74
2022/08/22 06:19:52;;;;;;;2.95;2.65;;;;;;;16.07;87.23;98130.78;5002739;28;20097;-75
2022/08/22 06:22:21;;;;;;;3.28;2.97;;;;;;;16.05;87.38;98128.34;5001041;28;20034;-75
2022/08/22 06:24:49;;;;;;;;;;;;;;;16.04;86.93;98125.91;5006285;28;20026;-75
2022/08/22 06:27:19;;;;;;;3.30;3.00;;;;;;;16.07;87.26;98131.59;5003436;28;19922;-76
2022/08/22 06:29:49;;;;;;;2.83;2.53;;;;;;;16.10;87.55;98137.59;5004825;28;20386;-75
2022/08/22 06:32:21;;;;;;;3.50;2.80;;;;;;;16.10;87.32;98127.31;4999076;28;20620;-74
2022/08/22 06:34:48;;;;;;;3.30;3.00;;;;;;;16.09;87.13;98135.97;4997070;28;20521;-75
2022/08/22 06:37:24;;;;;;;4.30;2.80;;;;;;;16.10;87.17;98132.84;5004895;28;20038;-75
2022/08/22 06:39:53;;;;;;;3.05;2.60;;;;;;;16.11;87.21;98130.88;5009676;28;20106;-76
2022/08/22 06:42:24;;;;;;;3.43;3.13;;;;;;;16.11;87.27;98141.94;5005003;28;20037;-75
2022/08/22 06:45:08;;;;;;;3.10;2.78;;;;;;;16.12;87.01;98135.25;5009090;28;20623;-74
2022/08/22 06:47:39;;;;;;;2.90;2.40;;;;;;;16.14;86.91;98139.31;5007014;28;20030;-74
2022/08/22 06:50:22;;;;;;;2.80;2.50;;;;;;;16.17;87.39;98143.34;5001466;28;20093;-74
2022/08/22 06:52:57;;;;;;;2.60;2.40;;;;;;;16.19;87.03;98150.19;5003629;28;20057;-74
2022/08/22 06:55:25;;;;;;;3.00;2.10;;;;;;;16.24;87.51;98151.13;5008400;28;20514;-74
2022/08/22 06:58:23;;;;;;;3.05;2.20;;;;;;;16.26;87.01;98155.16;5003400;28;20067;-75
2022/08/22 07:00:54;;;;;;;3.40;2.10;;;;;;;16.29;87.13;98154.47;5007788;28;20080;-73
2022/08/22 07:03:31;;;;;;;3.05;1.70;;;;;;;16.30;87.25;98163.59;5004575;28;20100;-74
2022/08/22 07:05:58;;;;;;;2.80;1.80;;;;;;;16.28;86.95;98146.53;5001058;28;20033;-74
2022/08/22 07:08:25;;;;;;;2.53;1.73;;;;;;;16.29;86.96;98148.13;5008823;28;20113;-74
2022/08/22 07:11:08;;;;;;;2.70;1.80;;;;;;;16.30;86.83;98150.56;5006361;28;20084;-75
2022/08/22 07:13:37;;;;;;;2.13;1.42;;;;;;;16.34;87.03;98147.91;5003189;28;20510;-71
2022/08/22 07:16:07;;;;;;;1.77;1.63;;;;;;;16.36;87.12;98145.59;5001682;28;20061;-72
2022/08/22 07:18:32;;;;;;;;;;;;;;;16.36;86.99;98149.19;4995179;28;20040;-74
2022/08/22 07:21:03;;;;;;;2.85;1.80;;;;;;;16.36;87.00;98154.72;4998442;28;20009;-73
2022/08/22 07:23:40;;;;;;;2.55;1.98;;;;;;;16.35;86.79;98158.63;5007315;28;20044;-72
2022/08/22 07:26:27;;;;;;;2.72;2.20;;;;;;;16.39;86.98;98157.97;5012107;28;20062;-72
2022/08/22 07:29:07;;;;;;;3.10;2.60;;;;;;;16.36;87.12;98157.50;5006699;28;20125;-73
2022/08/22 07:31:36;;;;;;;3.47;2.30;;;;;;;16.41;87.13;98161.19;5006600;28;20054;-74
2022/08/22 07:35:02;;;;;;;3.33;2.75;;;;;;;16.42;86.86;98166.38;5005856;28;20040;-74
2022/08/22 07:37:45;;;;;;;3.67;2.15;;;;;;;16.45;86.89;98160.16;4950400;29;20051;-72
2022/08/22 07:40:24;;;;;;;3.03;2.03;;;;;;;16.45;86.46;98160.16;5005968;28;20026;-74
2022/08/22 07:43:01;;;;;;;3.45;2.25;;;;;;;16.47;86.57;98155.09;5003563;28;20037;-74
2022/08/22 07:45:39;;;;;;;2.28;1.88;;;;;;;16.48;86.81;98161.44;5001011;28;20026;-74
2022/08/22 07:48:26;;;;;;;3.15;2.17;;;;;;;16.48;86.53;98164.22;5004932;28;20100;-75
2022/08/22 07:50:59;;;;;;;4.37;2.47;;;;;;;16.48;86.76;98158.69;5004013;28;20049;-74
2022/08/22 07:53:33;;;;;;;3.90;2.85;;;;;;;16.48;86.55;98158.69;4999555;28;20273;-73
2022/08/22 07:56:01;;;;;;;3.45;2.40;;;;;;;16.49;86.33;98165.81;5007585;28;20038;-74
2022/08/22 07:58:30;;;;;;;3.27;2.70;;;;;;;16.52;86.71;98174.25;5007765;28;20125;-73
2022/08/22 08:00:56;;;;;;;3.30;2.50;;;;;;;16.55;86.64;98169.97;5007710;28;20033;-72
2022/08/22 08:03:26;;;;;;;4.28;3.05;;;;;;;16.58;86.44;98169.28;5006745;28;20058;-73
2022/08/22 08:05:52;;;;;;;3.97;2.70;;;;;;;16.63;86.88;98163.53;5011246;28;20049;-76
2022/08/22 08:08:29;;;;;;;3.75;2.92;;;;;;;16.65;86.71;98161.22;5009822;28;20037;-74
2022/08/22 08:10:58;;;;;;;3.67;2.85;;;;;;;16.69;86.45;98166.06;5008863;28;20093;-73
2022/08/22 08:13:29;;;;;;;3.78;2.88;;;;;;;16.71;86.29;98164.56;5000850;28;20381;-73
2022/08/22 08:15:55;;;;;;;4.57;3.22;;;;;;;16.74;86.48;98168.63;5004511;28;20022;-73
2022/08/22 08:18:24;;;;;;;3.80;2.88;;;;;;;16.74;86.17;98168.63;5004721;28;20041;-71
2022/08/22 08:20:58;;;;;;;28.67;15.27;;;;;;;16.74;86.27;98163.09;5004690;28;20022;-74
2022/08/22 08:23:28;;;;;;;11.23;7.85;;;;;;;16.74;86.27;98169.41;5005995;28;20036;-73
2022/08/22 08:26:07;;;;;;;4.85;3.70;;;;;;;16.73;86.04;98165.03;5005228;28;20046;-73
2022/08/22 08:28:38;;;;;;;;;;;;;;;16.72;86.10;98165.38;5000566;28;20072;-73
2022/08/22 08:31:08;;;;;;;5.25;4.72;;;;;;;16.70;86.31;98157.44;5002241;28;20023;-74
2022/08/22 08:33:38;;;;;;;5.30;4.13;;;;;;;16.65;86.08;98150.16;5002226;28;20045;-73
2022/08/22 08:36:29;;;;;;;5.57;4.30;;;;;;;16.65;86.02;98165.97;5007996;28;20026;-74
2022/08/22 08:39:15;;;;;;;6.13;4.55;;;;;;;16.62;86.26;98158.34;5007721;28;20507;-74
2022/08/22 08:42:00;;;;;;;6.05;4.60;;;;;;;16.60;86.43;98155.91;4998638;28;20033;-74
2022/08/22 08:44:29;;;;;;;5.10;4.30;;;;;;;16.56;85.97;98152.22;5000442;28;20037;-73
2022/08/22 08:46:56;;;;;;;5.55;4.97;;;;;;;16.54;86.05;98148.97;5010798;28;20034;-74
2022/08/22 08:49:28;;;;;;;4.78;4.18;;;;;;;16.50;86.23;98156.38;5000873;28;20034;-73
2022/08/22 08:52:09;;;;;;;8.05;5.45;;;;;;;16.51;86.33;98149.66;4999735;28;20034;-73
2022/08/22 08:54:50;;;;;;;5.45;4.45;;;;;;;16.51;86.20;98149.66;5000241;28;20029;-75
2022/08/22 08:57:28;;;;;;;4.43;4.03;;;;;;;16.51;86.22;98147.72;5003804;28;20033;-75
2022/08/22 09:00:13;;;;;;;4.32;3.90;;;;;;;16.50;86.22;98142.53;5006165;28;20041;-75
2022/08/22 09:02:56;;;;;;;4.20;3.80;;;;;;;16.46;85.97;98149.91;5005799;28;20048;-75
2022/08/22 09:05:52;;;;;;;6.57;5.30;;;;;;;16.47;86.43;98151.53;5003442;28;20033;-75
2022/08/22 09:08:51;;;;;;;5.30;4.00;;;;;;;16.48;86.24;98147.59;5005761;28;20499;-74
2022/08/22 09:12:00;;;;;;;4.32;3.75;;;;;;;16.49;86.39;98146.44;5005939;28;20034;-75
2022/08/22 09:14:47;;;;;;;4.33;3.60;;;;;;;16.53;86.32;98141.81;5001620;28;20096;-74
2022/08/22 09:17:50;;;;;;;5.32;4.30;;;;;;;16.52;86.21;98138.25;5006949;28;20026;-75
2022/08/22 09:20:50;;;;;;;5.97;4.80;;;;;;;16.49;86.50;98144.47;5006728;28;20073;-74
2022/08/22 09:23:37;;;;;;;4.95;3.40;;;;;;;16.49;86.00;98154.75;5002254;28;20088;-75
2022/08/22 09:26:14;;;;;;;4.82;4.32;;;;;;;16.51;86.51;98158.78;5001225;28;20097;-75
2022/08/22 09:28:54;;;;;;;4.38;3.65;;;;;;;16.51;86.38;98163.50;5004553;28;20072;-76
2022/08/22 09:31:22;;;;;;;4.53;3.78;;;;;;;16.53;86.25;98163.97;5004914;28;20033;-74
2022/08/22 09:33:53;;;;;;;6.50;4.72;;;;;;;16.57;86.11;98164.09;5007444;28;20581;-73
2022/08/22 09:36:47;;;;;;;4.57;3.25;;;;;;;16.59;86.58;98167.34;4999154;28;20037;-74
2022/08/22 09:39:33;;;;;;;5.30;3.55;;;;;;;16.62;86.08;98172.19;5010285;28;20033;-74
2022/08/22 09:42:30;;;;;;;4.75;4.18;;;;;;;16.66;86.49;98179.44;4993538;28;20027;-75
2022/08/22 09:45:14;;;;;;;5.25;3.97;;;;;;;16.70;86.19;98173.22;4997370;28;20042;-78
2022/08/22 09:48:17;;;;;;;4.80;4.03;;;;;;;16.69;85.97;98166.06;5002794;28;20026;-79
2022/08/22 09:51:01;;;;;;;6.22;3.70;;;;;;;16.69;85.97;98169.66;5005162;28;20080;-82
2022/08/22 09:53:26;;;;;;;6.60;3.78;;;;;;;16.70;85.88;98171.28;5006721;28;20076;-78
2022/08/22 09:55:52;;;;;;;5.47;3.40;;;;;;;16.71;86.25;98172.09;5003562;28;20038;-77
2022/08/22 09:58:36;;;;;;;6.45;3.72;;;;;;;16.73;86.16;98170.56;5003950;28;20184;-77
2022/08/22 10:01:17;;;;;;;4.70;3.97;;;;;;;16.77;86.41;98179.00;5006578;28;20100;-77
2022/08/22 10:03:45;;;;;;;4.53;3.70;;;;;;;16.75;86.03;98176.56;5005727;28;20041;-75
2022/08/22 10:06:19;;;;;;;6.53;4.28;;;;;;;16.76;85.95;98175.41;5005949;28;20104;-79
2022/08/22 10:08:57;;;;;;;4.85;4.00;;;;;;;16.77;86.04;98176.25;5008763;28;20026;-79
2022/08/22 10:11:31;;;;;;;5.70;3.80;;;;;;;16.78;86.08;98181.44;5012082;28;20089;-78
2022/08/22 10:14:15;;;;;;;7.00;4.43;;;;;;;16.80;85.98;98181.09;5008159;28;20038;-80
2022/08/22 10:17:04;;;;;;;5.03;4.13;;;;;;;16.80;85.97;98176.34;5009287;28;20022;-81
2022/08/22 10:19:45;;;;;;;5.80;4.05;;;;;;;16.80;86.04;98183.88;5009407;28;20026;-80
2022/08/22 10:22:40;;;;;;;5.72;3.67;;;;;;;16.82;86.09;98184.34;5004389;28;20048;-79
2022/08/22 10:25:24;;;;;;;5.30;4.00;;;;;;;16.85;86.01;98183.66;5005488;28;20526;-79
2022/08/22 10:28:08;;;;;;;5.15;4.53;;;;;;;16.92;86.29;98188.59;5005187;28;20026;-76
2022/08/22 10:31:04;;;;;;;5.55;4.53;;;;;;;16.97;86.12;98193.94;5002796;28;20499;-77
2022/08/22 10:33:35;;;;;;;5.28;4.57;;;;;;;16.99;86.32;98188.88;5002769;28;20037;-77
2022/08/22 10:36:09;;;;;;;5.93;4.47;;;;;;;17.01;86.17;98194.88;5017541;28;20019;-76
2022/08/22 10:38:40;;;;;;;6.25;4.65;;;;;;;17.01;86.06;98194.88;5004951;28;20038;-77
2022/08/22 10:41:29;;;;;;;6.45;4.53;;;;;;;16.99;86.23;98190.81;5006075;28;20029;-77
2022/08/22 10:44:13;;;;;;;6.18;5.07;;;;;;;16.92;86.06;98194.94;5002632;28;20112;-79
2022/08/22 10:46:46;;;;;;;5.72;4.60;;;;;;;16.87;86.10;98186.88;5006312;28;20060;-80
2022/08/22 10:49:50;;;;;;;8.10;5.72;;;;;;;16.81;86.14;98183.50;5006904;28;20045;-81
2022/08/22 10:52:30;;;;;;;6.53;4.72;;;;;;;16.81;86.04;98191.81;5007250;28;20526;-80
2022/08/22 10:55:16;;;;;;;6.70;5.15;;;;;;;16.76;86.58;98189.25;5006717;28;20034;-82
2022/08/22 10:57:57;;;;;;;7.15;5.72;;;;;;;16.76;86.17;98191.25;5008446;28;20508;-79
2022/08/22 11:00:48;;;;;;;7.43;5.13;;;;;;;16.78;86.29;98191.72;5011211;28;20029;-80
2022/08/22 11:03:20;;;;;;;6.72;5.75;;;;;;;16.80;86.42;98190.19;5009003;28;20054;-80
2022/08/22 11:05:47;;;;;;;6.40;5.57;;;;;;;16.79;86.59;98185.81;5007827;28;20030;-78
2022/08/22 11:08:22;;;;;;;6.45;5.38;;;;;;;16.79;86.56;98185.81;5008083;28;20073;-78
2022/08/22 11:11:01;;;;;;;6.32;5.60;;;;;;;16.83;86.43;98188.72;5006268;28;20040;-79
2022/08/22 11:13:27;;;;;;;;;;;;;;;16.87;86.45;98186.06;5007509;28;20040;-79
2022/08/22 11:16:37;;;;;;;6.25;5.25;;;;;;;16.87;86.58;98192.41;5010395;28;19913;-79
2022/08/22 11:19:21;;;;;;;6.22;5.20;;;;;;;16.95;86.50;98193.44;4993123;28;20046;-79
2022/08/22 11:21:55;;;;;;;6.65;5.32;;;;;;;17.00;86.76;98192.44;5008158;28;20034;-80
2022/08/22 11:24:30;;;;;;;7.22;5.80;;;;;;;17.04;86.84;98196.97;5012184;28;20571;-77
2022/08/22 11:27:14;;;;;;;6.68;5.65;;;;;;;17.07;86.69;98192.66;5008409;28;20108;-79
2022/08/22 11:30:15;;;;;;;7.57;6.03;;;;;;;17.10;86.66;98187.25;5004123;28;20491;-78
2022/08/22 11:33:02;;;;;;;7.82;6.20;;;;;;;17.14;86.56;98189.31;5009696;28;20144;-77
2022/08/22 11:35:43;;;;;;;7.47;5.97;;;;;;;17.13;86.47;98191.28;5005297;28;20080;-80
2022/08/22 11:38:36;;;;;;;7.78;6.75;;;;;;;17.12;86.29;98189.69;4999151;28;20054;-78
2022/08/22 11:41:19;;;;;;;7.13;6.20;;;;;;;17.11;86.27;98190.81;5003004;28;20034;-80
2022/08/22 11:44:10;;;;;;;7.80;6.28;;;;;;;17.14;86.42;98186.53;5004544;28;20184;-82
2022/08/22 11:46:39;;;;;;;6.97;5.88;;;;;;;17.17;86.24;98189.44;5005499;28;20066;-80
2022/08/22 11:49:26;;;;;;;6.57;5.88;;;;;;;17.21;86.53;98184.81;5004643;28;20042;-80
2022/08/22 11:52:03;;;;;;;8.35;7.00;;;;;;;17.20;86.67;98188.75;5009942;28;20444;-82
2022/08/22 11:54:38;;;;;;;8.13;6.38;;;;;;;17.20;86.68;98187.94;5009633;28;20037;-81
2022/08/22 11:57:08;;;;;;;7.57;6.35;;;;;;;17.23;86.76;98190.00;5006822;28;20037;-81
2022/08/22 11:59:58;;;;;;;7.63;6.32;;;;;;;17.24;86.65;98186.91;5004664;28;20069;-80
2022/08/22 12:02:52;;;;;;;8.15;6.57;;;;;;;17.25;86.56;98177.44;5009908;28;20030;-80
2022/08/22 12:05:21;;;;;;;8.10;6.07;;;;;;;17.28;86.78;98183.44;5011087;28;20139;-80
2022/08/22 12:08:21;;;;;;;7.93;6.95;;;;;;;17.30;86.90;98187.47;5010656;28;20036;-80
2022/08/22 12:10:51;;;;;;;;;;;;;;;17.35;86.70;98191.97;4969105;28;20037;-81
2022/08/22 12:13:40;;;;;;;10.75;7.97;;;;;;;17.33;86.61;98191.50;5011043;28;20056;-80
2022/08/22 12:16:19;;;;;;;9.23;7.63;;;;;;;17.38;86.83;98175.44;5009246;28;20029;-81
2022/08/22 12:19:07;;;;;;;10.00;7.88;;;;;;;17.44;86.70;98183.53;5009095;28;20030;-81
2022/08/22 12:21:59;;;;;;;8.98;6.90;;;;;;;17.53;87.29;98181.41;5002665;28;20396;-82
2022/08/22 12:24:31;;;;;;;9.88;7.55;;;;;;;17.56;87.08;98177.94;5007834;28;20037;-84
2022/08/22 12:27:08;;;;;;;9.75;8.18;;;;;;;17.57;86.97;98176.78;5007588;28;20034;-83
2022/08/22 12:29:42;;;;;;;9.10;7.50;;;;;;;17.58;87.10;98172.06;5011176;28;20377;-80
2022/08/22 12:32:30;;;;;;;9.30;7.85;;;;;;;17.56;86.96;98176.00;5010881;28;20029;-83
2022/08/22 12:35:02;;;;;;;9.48;8.15;;;;;;;17.57;86.82;98171.25;5002647;28;20030;-81
2022/08/22 12:37:58;;;;;;;10.10;7.88;;;;;;;17.61;87.08;98168.59;5011016;28;20029;-84